sensor_id;sensor_type;location;lat;lon;timestamp;P1;durP1;ratioP1;P2;durP2;ratioP2
9838;SDS011;4958;48.150;11.506;2024-01-06T00:00:08;8.53;;;7.70;;
9838;SDS011;4958;48.150;11.506;2024-01-06T00:02:35;8.37;;;7.47;;
9838;SDS011;4958;48.150;11.506;2024-01-06T00:05:07;8.80;;;7.90;;
9838;SDS011;4958;48.150;11.506;2024-01-06T00:07:42;8.73;;;7.83;;
9838;SDS011;4958;48.150;11.506;2024-01-06T00:10:18;7.93;;;7.20;;
9838;SDS011;4958;48.150;11.506;2024-01-06T00:12:47;8.43;;;7.63;;
9838;SDS011;4958;48.150;11.506;2024-01-06T00:15:30;8.13;;;7.33;;
9838;SDS011;4958;48.150;11.506;2024-01-06T00:17:58;8.03;;;7.23;;
9838;SDS011;4958;48.150;11.506;2024-01-06T00:20:32;8.33;;;7.53;;
9838;SDS011;4958;48.150;11.506;2024-01-06T00:23:16;8.03;;;7.23;;
9838;SDS011;4958;48.150;11.506;2024-01-06T00:25:43;9.37;;;7.73;;
9838;SDS011;4958;48.150;11.506;2024-01-06T00:28:11;9.70;;;7.83;;
9838;SDS011;4958;48.150;11.506;2024-01-06T00:30:37;9.10;;;8.20;;
9838;SDS011;4958;48.150;11.506;2024-01-06T00:33:04;8.07;;;7.17;;
9838;SDS011;4958;48.150;11.506;2024-01-06T00:35:34;8.60;;;7.70;;
9838;SDS011;4958;48.150;11.506;2024-01-06T00:38:01;9.10;;;8.10;;
9838;SDS011;4958;48.150;11.506;2024-01-06T00:40:34;9.30;;;8.40;;
9838;SDS011;4958;48.150;11.506;2024-01-06T00:43:20;10.23;;;8.83;;
9838;SDS011;4958;48.150;11.506;2024-01-06T00:45:55;8.97;;;8.07;;
9838;SDS011;4958;48.150;11.506;2024-01-06T00:48:28;9.13;;;8.23;;
9838;SDS011;4958;48.150;11.506;2024-01-06T00:51:00;9.40;;;8.50;;
9838;SDS011;4958;48.150;11.506;2024-01-06T00:53:35;9.77;;;8.77;;
9838;SDS011;4958;48.150;11.506;2024-01-06T00:56:08;9.53;;;8.53;;
9838;SDS011;4958;48.150;11.506;2024-01-06T00:58:45;9.40;;;8.30;;
9838;SDS011;4958;48.150;11.506;2024-01-06T01:01:25;9.93;;;8.93;;
9838;SDS011;4958;48.150;11.506;2024-01-06T01:03:54;9.83;;;8.83;;
9838;SDS011;4958;48.150;11.506;2024-01-06T01:06:33;11.60;;;10.40;;
9838;SDS011;4958;48.150;11.506;2024-01-06T01:09:05;22.80;;;10.33;;
9838;SDS011;4958;48.150;11.506;2024-01-06T01:11:36;12.00;;;10.80;;
9838;SDS011;4958;48.150;11.506;2024-01-06T01:14:06;12.00;;;10.57;;
9838;SDS011;4958;48.150;11.506;2024-01-06T01:16:36;12.40;;;11.10;;
9838;SDS011;4958;48.150;11.506;2024-01-06T01:19:08;12.23;;;10.93;;
9838;SDS011;4958;48.150;11.506;2024-01-06T01:21:42;12.27;;;10.77;;
9838;SDS011;4958;48.150;11.506;2024-01-06T01:24:08;12.37;;;10.80;;
9838;SDS011;4958;48.150;11.506;2024-01-06T01:26:35;13.93;;;10.67;;
9838;SDS011;4958;48.150;11.506;2024-01-06T01:29:07;11.70;;;10.50;;
9838;SDS011;4958;48.150;11.506;2024-01-06T01:31:40;10.80;;;9.80;;
9838;SDS011;4958;48.150;11.506;2024-01-06T01:34:18;9.60;;;8.60;;
9838;SDS011;4958;48.150;11.506;2024-01-06T01:39:31;9.57;;;8.00;;
9838;SDS011;4958;48.150;11.506;2024-01-06T01:42:04;8.33;;;7.53;;
9838;SDS011;4958;48.150;11.506;2024-01-06T01:44:31;8.20;;;7.37;;
9838;SDS011;4958;48.150;11.506;2024-01-06T01:47:12;8.27;;;7.17;;
9838;SDS011;4958;48.150;11.506;2024-01-06T01:49:46;8.47;;;7.30;;
9838;SDS011;4958;48.150;11.506;2024-01-06T01:52:25;8.40;;;6.70;;
9838;SDS011;4958;48.150;11.506;2024-01-06T01:54:57;8.37;;;7.47;;
9838;SDS011;4958;48.150;11.506;2024-01-06T01:57:42;8.10;;;7.30;;
9838;SDS011;4958;48.150;11.506;2024-01-06T02:00:14;8.60;;;7.80;;
9838;SDS011;4958;48.150;11.506;2024-01-06T02:02:41;7.93;;;7.13;;
9838;SDS011;4958;48.150;11.506;2024-01-06T02:07:56;8.57;;;7.70;;
9838;SDS011;4958;48.150;11.506;2024-01-06T02:10:25;9.53;;;7.83;;
9838;SDS011;4958;48.150;11.506;2024-01-06T02:13:00;9.07;;;8.17;;
9838;SDS011;4958;48.150;11.506;2024-01-06T02:15:37;10.10;;;8.63;;
9838;SDS011;4958;48.150;11.506;2024-01-06T02:18:22;11.33;;;9.63;;
9838;SDS011;4958;48.150;11.506;2024-01-06T02:20:48;11.23;;;9.57;;
9838;SDS011;4958;48.150;11.506;2024-01-06T02:23:22;11.93;;;9.90;;
9838;SDS011;4958;48.150;11.506;2024-01-06T02:25:49;11.20;;;10.03;;
9838;SDS011;4958;48.150;11.506;2024-01-06T02:28:15;10.97;;;9.87;;
9838;SDS011;4958;48.150;11.506;2024-01-06T02:30:50;11.30;;;9.77;;
9838;SDS011;4958;48.150;11.506;2024-01-06T02:33:20;11.07;;;9.97;;
9838;SDS011;4958;48.150;11.506;2024-01-06T02:35:49;11.10;;;9.90;;
9838;SDS011;4958;48.150;11.506;2024-01-06T02:41:03;11.37;;;10.17;;
9838;SDS011;4958;48.150;11.506;2024-01-06T02:43:38;11.30;;;10.00;;
9838;SDS011;4958;48.150;11.506;2024-01-06T02:46:12;10.23;;;9.13;;
9838;SDS011;4958;48.150;11.506;2024-01-06T02:48:48;9.87;;;8.37;;
9838;SDS011;4958;48.150;11.506;2024-01-06T02:51:14;8.83;;;7.93;;
9838;SDS011;4958;48.150;11.506;2024-01-06T02:53:51;8.17;;;7.30;;
9838;SDS011;4958;48.150;11.506;2024-01-06T02:56:25;8.73;;;7.37;;
9838;SDS011;4958;48.150;11.506;2024-01-06T02:59:00;8.73;;;7.83;;
9838;SDS011;4958;48.150;11.506;2024-01-06T03:01:39;7.70;;;6.93;;
9838;SDS011;4958;48.150;11.506;2024-01-06T03:04:14;7.47;;;6.53;;
9838;SDS011;4958;48.150;11.506;2024-01-06T03:06:46;7.17;;;6.47;;
9838;SDS011;4958;48.150;11.506;2024-01-06T03:09:21;7.47;;;6.57;;
9838;SDS011;4958;48.150;11.506;2024-01-06T03:14:35;6.30;;;5.70;;
9838;SDS011;4958;48.150;11.506;2024-01-06T03:17:04;6.57;;;5.97;;
9838;SDS011;4958;48.150;11.506;2024-01-06T03:19:35;6.17;;;5.57;;
9838;SDS011;4958;48.150;11.506;2024-01-06T03:22:08;6.70;;;6.00;;
9838;SDS011;4958;48.150;11.506;2024-01-06T03:24:43;6.13;;;5.60;;
9838;SDS011;4958;48.150;11.506;2024-01-06T03:27:10;6.50;;;5.90;;
9838;SDS011;4958;48.150;11.506;2024-01-06T03:29:49;6.73;;;6.07;;
9838;SDS011;4958;48.150;11.506;2024-01-06T03:32:26;7.07;;;6.07;;
9838;SDS011;4958;48.150;11.506;2024-01-06T03:35:02;6.03;;;5.53;;
9838;SDS011;4958;48.150;11.506;2024-01-06T03:37:31;6.20;;;5.60;;
9838;SDS011;4958;48.150;11.506;2024-01-06T03:40:12;6.40;;;5.80;;
9838;SDS011;4958;48.150;11.506;2024-01-06T03:42:43;6.07;;;5.50;;
9838;SDS011;4958;48.150;11.506;2024-01-06T03:45:23;6.03;;;5.43;;
9838;SDS011;4958;48.150;11.506;2024-01-06T03:47:49;5.97;;;5.37;;
9838;SDS011;4958;48.150;11.506;2024-01-06T03:50:42;5.87;;;5.27;;
9838;SDS011;4958;48.150;11.506;2024-01-06T03:53:10;6.40;;;5.80;;
9838;SDS011;4958;48.150;11.506;2024-01-06T03:58:33;5.77;;;5.20;;
9838;SDS011;4958;48.150;11.506;2024-01-06T04:01:12;5.53;;;4.93;;
9838;SDS011;4958;48.150;11.506;2024-01-06T04:03:42;5.70;;;5.20;;
9838;SDS011;4958;48.150;11.506;2024-01-06T04:06:10;5.70;;;5.10;;
9838;SDS011;4958;48.150;11.506;2024-01-06T04:08:51;5.07;;;4.67;;
9838;SDS011;4958;48.150;11.506;2024-01-06T04:14:23;5.00;;;4.50;;
9838;SDS011;4958;48.150;11.506;2024-01-06T04:17:01;4.10;;;3.70;;
9838;SDS011;4958;48.150;11.506;2024-01-06T04:19:32;4.53;;;4.13;;
9838;SDS011;4958;48.150;11.506;2024-01-06T04:21:59;4.43;;;4.03;;
9838;SDS011;4958;48.150;11.506;2024-01-06T04:24:32;3.90;;;3.60;;
9838;SDS011;4958;48.150;11.506;2024-01-06T04:27:03;3.43;;;3.13;;
9838;SDS011;4958;48.150;11.506;2024-01-06T04:29:34;3.43;;;3.13;;
9838;SDS011;4958;48.150;11.506;2024-01-06T04:32:01;3.40;;;3.10;;
9838;SDS011;4958;48.150;11.506;2024-01-06T04:34:34;2.33;;;2.13;;
9838;SDS011;4958;48.150;11.506;2024-01-06T04:37:09;2.20;;;2.00;;
9838;SDS011;4958;48.150;11.506;2024-01-06T04:39:45;2.20;;;2.00;;
9838;SDS011;4958;48.150;11.506;2024-01-06T04:42:22;2.10;;;1.63;;
9838;SDS011;4958;48.150;11.506;2024-01-06T04:44:48;1.80;;;1.70;;
9838;SDS011;4958;48.150;11.506;2024-01-06T04:47:16;1.73;;;1.63;;
9838;SDS011;4958;48.150;11.506;2024-01-06T04:50:01;1.77;;;1.67;;
9838;SDS011;4958;48.150;11.506;2024-01-06T04:52:36;1.50;;;1.40;;
9838;SDS011;4958;48.150;11.506;2024-01-06T04:55:03;1.47;;;1.37;;
9838;SDS011;4958;48.150;11.506;2024-01-06T04:57:42;1.83;;;1.10;;
9838;SDS011;4958;48.150;11.506;2024-01-06T05:00:21;1.30;;;1.00;;
9838;SDS011;4958;48.150;11.506;2024-01-06T05:02:51;1.20;;;1.10;;
9838;SDS011;4958;48.150;11.506;2024-01-06T05:05:22;1.10;;;1.00;;
9838;SDS011;4958;48.150;11.506;2024-01-06T05:07:55;0.83;;;0.70;;
9838;SDS011;4958;48.150;11.506;2024-01-06T05:10:40;0.90;;;0.90;;
9838;SDS011;4958;48.150;11.506;2024-01-06T05:13:14;2.03;;;1.00;;
9838;SDS011;4958;48.150;11.506;2024-01-06T05:15:49;1.10;;;0.80;;
9838;SDS011;4958;48.150;11.506;2024-01-06T05:18:18;0.70;;;0.70;;
9838;SDS011;4958;48.150;11.506;2024-01-06T05:20:55;0.80;;;0.80;;
9838;SDS011;4958;48.150;11.506;2024-01-06T05:23:37;0.60;;;0.60;;
9838;SDS011;4958;48.150;11.506;2024-01-06T05:26:18;0.83;;;0.80;;
9838;SDS011;4958;48.150;11.506;2024-01-06T05:28:55;1.27;;;0.83;;
9838;SDS011;4958;48.150;11.506;2024-01-06T05:31:24;0.80;;;0.80;;
9838;SDS011;4958;48.150;11.506;2024-01-06T05:34:05;0.70;;;0.70;;
9838;SDS011;4958;48.150;11.506;2024-01-06T05:36:39;0.70;;;0.70;;
9838;SDS011;4958;48.150;11.506;2024-01-06T05:39:12;0.90;;;0.90;;
9838;SDS011;4958;48.150;11.506;2024-01-06T05:41:47;1.03;;;0.90;;
9838;SDS011;4958;48.150;11.506;2024-01-06T05:44:23;0.80;;;0.80;;
9838;SDS011;4958;48.150;11.506;2024-01-06T05:49:41;0.80;;;0.80;;
9838;SDS011;4958;48.150;11.506;2024-01-06T05:52:25;1.47;;;1.00;;
9838;SDS011;4958;48.150;11.506;2024-01-06T05:55:03;1.50;;;1.40;;
9838;SDS011;4958;48.150;11.506;2024-01-06T05:58:05;1.40;;;1.30;;
9838;SDS011;4958;48.150;11.506;2024-01-06T06:00:51;2.13;;;1.20;;
9838;SDS011;4958;48.150;11.506;2024-01-06T06:03:18;1.73;;;1.30;;
9838;SDS011;4958;48.150;11.506;2024-01-06T06:06:07;1.37;;;1.23;;
9838;SDS011;4958;48.150;11.506;2024-01-06T06:08:40;1.40;;;1.30;;
9838;SDS011;4958;48.150;11.506;2024-01-06T06:11:22;2.03;;;1.20;;
9838;SDS011;4958;48.150;11.506;2024-01-06T06:13:59;1.30;;;1.20;;
9838;SDS011;4958;48.150;11.506;2024-01-06T06:16:36;1.50;;;1.40;;
9838;SDS011;4958;48.150;11.506;2024-01-06T06:19:36;1.60;;;1.50;;
9838;SDS011;4958;48.150;11.506;2024-01-06T06:22:08;2.60;;;1.50;;
9838;SDS011;4958;48.150;11.506;2024-01-06T06:24:43;2.07;;;1.87;;
9838;SDS011;4958;48.150;11.506;2024-01-06T06:27:11;1.70;;;1.60;;
9838;SDS011;4958;48.150;11.506;2024-01-06T06:29:47;1.70;;;1.60;;
9838;SDS011;4958;48.150;11.506;2024-01-06T06:34:56;1.70;;;1.60;;
9838;SDS011;4958;48.150;11.506;2024-01-06T06:37:23;1.80;;;1.67;;
9838;SDS011;4958;48.150;11.506;2024-01-06T06:39:49;1.97;;;1.73;;
9838;SDS011;4958;48.150;11.506;2024-01-06T06:42:15;2.37;;;2.00;;
9838;SDS011;4958;48.150;11.506;2024-01-06T06:44:42;2.23;;;1.80;;
9838;SDS011;4958;48.150;11.506;2024-01-06T06:47:22;2.70;;;1.67;;
9838;SDS011;4958;48.150;11.506;2024-01-06T06:49:50;1.80;;;1.70;;
9838;SDS011;4958;48.150;11.506;2024-01-06T06:52:19;2.90;;;1.73;;
9838;SDS011;4958;48.150;11.506;2024-01-06T06:54:46;1.97;;;1.60;;
9838;SDS011;4958;48.150;11.506;2024-01-06T06:57:14;2.23;;;1.50;;
9838;SDS011;4958;48.150;11.506;2024-01-06T06:59:48;2.30;;;1.77;;
9838;SDS011;4958;48.150;11.506;2024-01-06T07:02:15;2.63;;;2.00;;
9838;SDS011;4958;48.150;11.506;2024-01-06T07:04:42;2.67;;;1.77;;
9838;SDS011;4958;48.150;11.506;2024-01-06T07:07:10;4.10;;;2.20;;
9838;SDS011;4958;48.150;11.506;2024-01-06T07:09:48;2.27;;;1.93;;
9838;SDS011;4958;48.150;11.506;2024-01-06T07:12:15;2.20;;;2.00;;
9838;SDS011;4958;48.150;11.506;2024-01-06T07:15:04;2.17;;;1.93;;
9838;SDS011;4958;48.150;11.506;2024-01-06T07:17:32;2.37;;;2.17;;
9838;SDS011;4958;48.150;11.506;2024-01-06T07:19:59;2.10;;;1.80;;
9838;SDS011;4958;48.150;11.506;2024-01-06T07:22:27;2.63;;;2.23;;
9838;SDS011;4958;48.150;11.506;2024-01-06T07:24:53;3.37;;;2.13;;
9838;SDS011;4958;48.150;11.506;2024-01-06T07:27:27;3.63;;;2.53;;
9838;SDS011;4958;48.150;11.506;2024-01-06T07:29:53;1.97;;;1.87;;
9838;SDS011;4958;48.150;11.506;2024-01-06T07:32:21;3.13;;;2.13;;
9838;SDS011;4958;48.150;11.506;2024-01-06T07:34:47;2.20;;;1.83;;
9838;SDS011;4958;48.150;11.506;2024-01-06T07:37:14;2.00;;;1.90;;
9838;SDS011;4958;48.150;11.506;2024-01-06T07:39:54;3.17;;;2.23;;
9838;SDS011;4958;48.150;11.506;2024-01-06T07:42:20;2.80;;;2.33;;
9838;SDS011;4958;48.150;11.506;2024-01-06T07:44:47;3.70;;;2.27;;
9838;SDS011;4958;48.150;11.506;2024-01-06T07:47:13;3.80;;;2.40;;
9838;SDS011;4958;48.150;11.506;2024-01-06T07:49:40;3.73;;;2.60;;
9838;SDS011;4958;48.150;11.506;2024-01-06T07:52:20;3.53;;;2.73;;
9838;SDS011;4958;48.150;11.506;2024-01-06T07:54:47;3.87;;;2.23;;
9838;SDS011;4958;48.150;11.506;2024-01-06T07:57:15;5.47;;;2.33;;
9838;SDS011;4958;48.150;11.506;2024-01-06T07:59:58;2.63;;;2.40;;
9838;SDS011;4958;48.150;11.506;2024-01-06T08:02:25;3.00;;;2.17;;
9838;SDS011;4958;48.150;11.506;2024-01-06T08:04:52;2.93;;;2.00;;
9838;SDS011;4958;48.150;11.506;2024-01-06T08:07:39;2.60;;;2.00;;
9838;SDS011;4958;48.150;11.506;2024-01-06T08:10:06;4.00;;;1.80;;
9838;SDS011;4958;48.150;11.506;2024-01-06T08:12:35;3.27;;;2.10;;
9838;SDS011;4958;48.150;11.506;2024-01-06T08:15:21;3.30;;;1.90;;
9838;SDS011;4958;48.150;11.506;2024-01-06T08:20:49;2.10;;;1.70;;
9838;SDS011;4958;48.150;11.506;2024-01-06T08:23:19;3.13;;;2.00;;
9838;SDS011;4958;48.150;11.506;2024-01-06T08:25:59;2.23;;;1.60;;
9838;SDS011;4958;48.150;11.506;2024-01-06T08:31:30;4.07;;;1.83;;
9838;SDS011;4958;48.150;11.506;2024-01-06T08:34:19;2.10;;;1.47;;
9838;SDS011;4958;48.150;11.506;2024-01-06T08:36:49;2.70;;;1.57;;
9838;SDS011;4958;48.150;11.506;2024-01-06T08:39:36;3.07;;;1.67;;
9838;SDS011;4958;48.150;11.506;2024-01-06T08:42:03;3.17;;;1.63;;
9838;SDS011;4958;48.150;11.506;2024-01-06T08:44:31;2.17;;;1.57;;
9838;SDS011;4958;48.150;11.506;2024-01-06T08:47:30;2.53;;;1.60;;
9838;SDS011;4958;48.150;11.506;2024-01-06T08:50:13;2.80;;;1.80;;
9838;SDS011;4958;48.150;11.506;2024-01-06T08:55:33;2.77;;;1.60;;
9838;SDS011;4958;48.150;11.506;2024-01-06T09:15:00;3.73;;;2.40;;
9838;SDS011;4958;48.150;11.506;2024-01-06T09:24:26;4.23;;;3.57;;
9838;SDS011;4958;48.150;11.506;2024-01-06T09:27:32;6.43;;;2.57;;
9838;SDS011;4958;48.150;11.506;2024-01-06T09:30:23;3.53;;;2.60;;
9838;SDS011;4958;48.150;11.506;2024-01-06T09:34:31;2.67;;;1.73;;
9838;SDS011;4958;48.150;11.506;2024-01-06T09:39:14;3.67;;;2.23;;
9838;SDS011;4958;48.150;11.506;2024-01-06T09:42:26;3.90;;;2.13;;
9838;SDS011;4958;48.150;11.506;2024-01-06T09:45:41;4.10;;;2.00;;
9838;SDS011;4958;48.150;11.506;2024-01-06T09:48:39;2.80;;;2.23;;
9838;SDS011;4958;48.150;11.506;2024-01-06T09:51:41;3.27;;;2.20;;
9838;SDS011;4958;48.150;11.506;2024-01-06T09:54:22;10.80;;;7.60;;
9838;SDS011;4958;48.150;11.506;2024-01-06T09:57:26;13.80;;;11.10;;
9838;SDS011;4958;48.150;11.506;2024-01-06T09:59:55;5.30;;;4.03;;
9838;SDS011;4958;48.150;11.506;2024-01-06T10:02:52;4.60;;;2.40;;
9838;SDS011;4958;48.150;11.506;2024-01-06T10:05:46;6.13;;;2.60;;
9838;SDS011;4958;48.150;11.506;2024-01-06T10:14:41;9.73;;;6.70;;
9838;SDS011;4958;48.150;11.506;2024-01-06T10:20:09;5.40;;;3.00;;
9838;SDS011;4958;48.150;11.506;2024-01-06T10:22:55;6.20;;;3.37;;
9838;SDS011;4958;48.150;11.506;2024-01-06T10:25:47;5.43;;;2.87;;
9838;SDS011;4958;48.150;11.506;2024-01-06T10:28:23;3.53;;;2.53;;
9838;SDS011;4958;48.150;11.506;2024-01-06T10:30:51;3.57;;;2.77;;
9838;SDS011;4958;48.150;11.506;2024-01-06T10:33:25;4.90;;;2.60;;
9838;SDS011;4958;48.150;11.506;2024-01-06T10:35:53;3.47;;;2.43;;
9838;SDS011;4958;48.150;11.506;2024-01-06T10:38:34;4.00;;;2.33;;
9838;SDS011;4958;48.150;11.506;2024-01-06T10:41:10;3.43;;;2.83;;
9838;SDS011;4958;48.150;11.506;2024-01-06T10:43:45;3.37;;;2.73;;
9838;SDS011;4958;48.150;11.506;2024-01-06T10:46:31;4.03;;;3.03;;
9838;SDS011;4958;48.150;11.506;2024-01-06T10:48:58;5.60;;;2.70;;
9838;SDS011;4958;48.150;11.506;2024-01-06T10:51:27;11.80;;;9.30;;
9838;SDS011;4958;48.150;11.506;2024-01-06T10:54:09;21.00;;;15.20;;
9838;SDS011;4958;48.150;11.506;2024-01-06T10:56:48;5.30;;;4.13;;
9838;SDS011;4958;48.150;11.506;2024-01-06T10:59:32;7.97;;;3.10;;
9838;SDS011;4958;48.150;11.506;2024-01-06T11:01:59;3.77;;;2.97;;
9838;SDS011;4958;48.150;11.506;2024-01-06T11:04:28;4.27;;;3.07;;
9838;SDS011;4958;48.150;11.506;2024-01-06T11:07:11;3.47;;;2.53;;
9838;SDS011;4958;48.150;11.506;2024-01-06T11:09:40;4.77;;;3.20;;
9838;SDS011;4958;48.150;11.506;2024-01-06T11:12:31;6.40;;;3.33;;
9838;SDS011;4958;48.150;11.506;2024-01-06T11:15:05;6.33;;;3.40;;
9838;SDS011;4958;48.150;11.506;2024-01-06T11:17:53;5.63;;;3.27;;
9838;SDS011;4958;48.150;11.506;2024-01-06T11:20:23;5.27;;;3.43;;
9838;SDS011;4958;48.150;11.506;2024-01-06T11:23:28;25.67;;;19.40;;
9838;SDS011;4958;48.150;11.506;2024-01-06T11:26:36;8.53;;;6.67;;
9838;SDS011;4958;48.150;11.506;2024-01-06T11:29:05;7.63;;;3.83;;
9838;SDS011;4958;48.150;11.506;2024-01-06T11:31:33;4.17;;;3.53;;
9838;SDS011;4958;48.150;11.506;2024-01-06T11:34:19;4.73;;;3.50;;
9838;SDS011;4958;48.150;11.506;2024-01-06T11:36:47;3.70;;;3.27;;
9838;SDS011;4958;48.150;11.506;2024-01-06T11:42:07;5.27;;;3.70;;
9838;SDS011;4958;48.150;11.506;2024-01-06T11:44:49;5.57;;;3.37;;
9838;SDS011;4958;48.150;11.506;2024-01-06T11:47:28;5.40;;;3.60;;
9838;SDS011;4958;48.150;11.506;2024-01-06T11:49:55;5.60;;;3.50;;
9838;SDS011;4958;48.150;11.506;2024-01-06T11:52:39;7.13;;;5.00;;
9838;SDS011;4958;48.150;11.506;2024-01-06T11:55:07;15.23;;;12.27;;
9838;SDS011;4958;48.150;11.506;2024-01-06T11:57:37;7.33;;;5.67;;
9838;SDS011;4958;48.150;11.506;2024-01-06T12:00:16;7.43;;;4.27;;
9838;SDS011;4958;48.150;11.506;2024-01-06T12:02:43;4.73;;;3.97;;
9838;SDS011;4958;48.150;11.506;2024-01-06T12:05:13;5.53;;;3.90;;
9838;SDS011;4958;48.150;11.506;2024-01-06T12:07:41;8.40;;;5.00;;
9838;SDS011;4958;48.150;11.506;2024-01-06T12:10:19;5.80;;;3.87;;
9838;SDS011;4958;48.150;11.506;2024-01-06T12:12:54;6.20;;;4.23;;
9838;SDS011;4958;48.150;11.506;2024-01-06T12:15:21;7.60;;;4.57;;
9838;SDS011;4958;48.150;11.506;2024-01-06T12:18:02;8.43;;;5.27;;
9838;SDS011;4958;48.150;11.506;2024-01-06T12:20:30;6.07;;;4.50;;
9838;SDS011;4958;48.150;11.506;2024-01-06T12:22:58;7.40;;;4.57;;
9838;SDS011;4958;48.150;11.506;2024-01-06T12:28:12;7.43;;;3.93;;
9838;SDS011;4958;48.150;11.506;2024-01-06T12:31:03;5.33;;;4.47;;
9838;SDS011;4958;48.150;11.506;2024-01-06T12:33:30;4.50;;;3.90;;
9838;SDS011;4958;48.150;11.506;2024-01-06T12:35:57;5.47;;;4.07;;
9838;SDS011;4958;48.150;11.506;2024-01-06T12:38:39;4.73;;;3.83;;
9838;SDS011;4958;48.150;11.506;2024-01-06T12:41:09;5.83;;;4.20;;
9838;SDS011;4958;48.150;11.506;2024-01-06T12:43:36;6.43;;;4.30;;
9838;SDS011;4958;48.150;11.506;2024-01-06T12:48:47;41.30;;;31.93;;
9838;SDS011;4958;48.150;11.506;2024-01-06T12:51:13;14.17;;;10.10;;
9838;SDS011;4958;48.150;11.506;2024-01-06T12:53:40;6.80;;;5.17;;
9838;SDS011;4958;48.150;11.506;2024-01-06T12:56:25;5.20;;;4.33;;
9838;SDS011;4958;48.150;11.506;2024-01-06T12:58:59;5.77;;;3.60;;
9838;SDS011;4958;48.150;11.506;2024-01-06T13:01:42;5.30;;;3.83;;
9838;SDS011;4958;48.150;11.506;2024-01-06T13:04:09;5.27;;;3.67;;
9838;SDS011;4958;48.150;11.506;2024-01-06T13:06:35;7.40;;;3.53;;
9838;SDS011;4958;48.150;11.506;2024-01-06T13:09:02;7.50;;;3.20;;
9838;SDS011;4958;48.150;11.506;2024-01-06T13:11:42;4.97;;;3.33;;
9838;SDS011;4958;48.150;11.506;2024-01-06T13:14:11;5.13;;;3.13;;
9838;SDS011;4958;48.150;11.506;2024-01-06T13:19:31;6.37;;;3.40;;
9838;SDS011;4958;48.150;11.506;2024-01-06T13:22:20;4.73;;;3.23;;
9838;SDS011;4958;48.150;11.506;2024-01-06T13:24:57;3.70;;;3.00;;
9838;SDS011;4958;48.150;11.506;2024-01-06T13:27:31;36.47;;;28.30;;
9838;SDS011;4958;48.150;11.506;2024-01-06T13:30:06;8.67;;;7.77;;
9838;SDS011;4958;48.150;11.506;2024-01-06T13:32:33;5.43;;;4.00;;
9838;SDS011;4958;48.150;11.506;2024-01-06T13:35:00;5.43;;;3.30;;
9838;SDS011;4958;48.150;11.506;2024-01-06T13:40:46;4.13;;;3.10;;
9838;SDS011;4958;48.150;11.506;2024-01-06T13:43:07;7.00;;;3.37;;
9838;SDS011;4958;48.150;11.506;2024-01-06T13:45:40;4.10;;;3.60;;
9838;SDS011;4958;48.150;11.506;2024-01-06T13:50:50;4.50;;;3.50;;
9838;SDS011;4958;48.150;11.506;2024-01-06T13:53:17;3.80;;;3.20;;
9838;SDS011;4958;48.150;11.506;2024-01-06T13:55:47;5.50;;;3.60;;
9838;SDS011;4958;48.150;11.506;2024-01-06T13:58:39;6.33;;;3.50;;
9838;SDS011;4958;48.150;11.506;2024-01-06T14:01:09;4.07;;;3.40;;
9838;SDS011;4958;48.150;11.506;2024-01-06T14:03:41;5.20;;;3.13;;
9838;SDS011;4958;48.150;11.506;2024-01-06T14:06:08;7.03;;;3.13;;
9838;SDS011;4958;48.150;11.506;2024-01-06T14:11:55;4.10;;;3.37;;
9838;SDS011;4958;48.150;11.506;2024-01-06T14:24:54;4.80;;;3.83;;
9838;SDS011;4958;48.150;11.506;2024-01-06T14:27:20;5.60;;;3.90;;
9838;SDS011;4958;48.150;11.506;2024-01-06T14:33:11;6.73;;;3.90;;
9838;SDS011;4958;48.150;11.506;2024-01-06T14:38:45;5.83;;;4.30;;
9838;SDS011;4958;48.150;11.506;2024-01-06T14:41:26;4.90;;;4.27;;
9838;SDS011;4958;48.150;11.506;2024-01-06T14:44:01;5.13;;;4.00;;
9838;SDS011;4958;48.150;11.506;2024-01-06T14:46:52;10.87;;;5.10;;
9838;SDS011;4958;48.150;11.506;2024-01-06T14:49:59;6.50;;;4.47;;
9838;SDS011;4958;48.150;11.506;2024-01-06T14:52:09;6.43;;;3.90;;
9838;SDS011;4958;48.150;11.506;2024-01-06T14:59:25;22.50;;;17.77;;
9838;SDS011;4958;48.150;11.506;2024-01-06T15:00:52;7.73;;;6.30;;
9838;SDS011;4958;48.150;11.506;2024-01-06T15:03:24;5.77;;;4.60;;
9838;SDS011;4958;48.150;11.506;2024-01-06T15:06:18;4.80;;;4.00;;
9838;SDS011;4958;48.150;11.506;2024-01-06T15:11:40;4.50;;;3.90;;
9838;SDS011;4958;48.150;11.506;2024-01-06T15:22:10;4.43;;;4.03;;
9838;SDS011;4958;48.150;11.506;2024-01-06T15:24:37;5.30;;;3.80;;
9838;SDS011;4958;48.150;11.506;2024-01-06T15:27:04;4.80;;;3.60;;
9838;SDS011;4958;48.150;11.506;2024-01-06T15:29:38;4.53;;;3.50;;
9838;SDS011;4958;48.150;11.506;2024-01-06T15:32:19;3.77;;;3.20;;
9838;SDS011;4958;48.150;11.506;2024-01-06T15:34:47;14.73;;;7.27;;
9838;SDS011;4958;48.150;11.506;2024-01-06T15:37:14;13.63;;;10.30;;
9838;SDS011;4958;48.150;11.506;2024-01-06T15:42:24;6.23;;;5.63;;
9838;SDS011;4958;48.150;11.506;2024-01-06T15:44:51;3.83;;;3.53;;
9838;SDS011;4958;48.150;11.506;2024-01-06T15:47:17;4.03;;;3.33;;
9838;SDS011;4958;48.150;11.506;2024-01-06T15:50:00;3.90;;;3.50;;
9838;SDS011;4958;48.150;11.506;2024-01-06T15:52:26;5.33;;;3.97;;
9838;SDS011;4958;48.150;11.506;2024-01-06T15:54:53;3.67;;;3.30;;
9838;SDS011;4958;48.150;11.506;2024-01-06T15:57:39;4.73;;;3.80;;
9838;SDS011;4958;48.150;11.506;2024-01-06T16:00:07;4.27;;;3.87;;
9838;SDS011;4958;48.150;11.506;2024-01-06T16:02:35;5.33;;;4.10;;
9838;SDS011;4958;48.150;11.506;2024-01-06T16:07:46;4.40;;;4.00;;
9838;SDS011;4958;48.150;11.506;2024-01-06T16:10:13;5.03;;;4.13;;
9838;SDS011;4958;48.150;11.506;2024-01-06T16:12:39;4.90;;;4.40;;
9838;SDS011;4958;48.150;11.506;2024-01-06T16:18:16;4.37;;;3.80;;
9838;SDS011;4958;48.150;11.506;2024-01-06T16:20:46;4.63;;;4.10;;
9838;SDS011;4958;48.150;11.506;2024-01-06T16:23:15;4.90;;;4.20;;
9838;SDS011;4958;48.150;11.506;2024-01-06T16:25:57;4.90;;;4.50;;
9838;SDS011;4958;48.150;11.506;2024-01-06T16:28:26;6.03;;;4.10;;
9838;SDS011;4958;48.150;11.506;2024-01-06T16:30:57;6.33;;;4.53;;
9838;SDS011;4958;48.150;11.506;2024-01-06T16:33:36;5.67;;;4.70;;
9838;SDS011;4958;48.150;11.506;2024-01-06T16:36:04;5.70;;;5.00;;
9838;SDS011;4958;48.150;11.506;2024-01-06T16:39:38;4.63;;;4.20;;
9838;SDS011;4958;48.150;11.506;2024-01-06T16:41:58;4.10;;;3.80;;
9838;SDS011;4958;48.150;11.506;2024-01-06T16:44:30;4.30;;;3.90;;
9838;SDS011;4958;48.150;11.506;2024-01-06T16:47:13;4.40;;;4.00;;
9838;SDS011;4958;48.150;11.506;2024-01-06T16:49:41;4.50;;;3.97;;
9838;SDS011;4958;48.150;11.506;2024-01-06T16:54:59;5.07;;;4.57;;
9838;SDS011;4958;48.150;11.506;2024-01-06T16:57:29;4.63;;;4.23;;
9838;SDS011;4958;48.150;11.506;2024-01-06T17:00:13;6.13;;;5.53;;
9838;SDS011;4958;48.150;11.506;2024-01-06T17:05:55;7.53;;;6.70;;
9838;SDS011;4958;48.150;11.506;2024-01-06T17:08:38;8.50;;;7.70;;
9838;SDS011;4958;48.150;11.506;2024-01-06T17:11:05;7.97;;;7.17;;
9838;SDS011;4958;48.150;11.506;2024-01-06T17:13:32;7.97;;;7.27;;
9838;SDS011;4958;48.150;11.506;2024-01-06T17:16:07;8.67;;;7.50;;
9838;SDS011;4958;48.150;11.506;2024-01-06T17:18:34;7.80;;;7.00;;
9838;SDS011;4958;48.150;11.506;2024-01-06T17:21:01;9.00;;;8.10;;
9838;SDS011;4958;48.150;11.506;2024-01-06T17:23:47;9.33;;;8.13;;
9838;SDS011;4958;48.150;11.506;2024-01-06T17:26:16;9.50;;;7.67;;
9838;SDS011;4958;48.150;11.506;2024-01-06T17:28:42;8.53;;;7.73;;
9838;SDS011;4958;48.150;11.506;2024-01-06T17:33:57;9.53;;;8.50;;
9838;SDS011;4958;48.150;11.506;2024-01-06T17:36:25;9.03;;;8.13;;
9838;SDS011;4958;48.150;11.506;2024-01-06T17:39:12;10.10;;;9.00;;
9838;SDS011;4958;48.150;11.506;2024-01-06T17:41:40;10.20;;;9.20;;
9838;SDS011;4958;48.150;11.506;2024-01-06T17:44:33;9.67;;;8.67;;
9838;SDS011;4958;48.150;11.506;2024-01-06T17:47:24;11.00;;;9.20;;
9838;SDS011;4958;48.150;11.506;2024-01-06T17:49:54;10.50;;;9.40;;
9838;SDS011;4958;48.150;11.506;2024-01-06T17:52:43;10.80;;;9.57;;
9838;SDS011;4958;48.150;11.506;2024-01-06T17:58:45;10.33;;;9.23;;
9838;SDS011;4958;48.150;11.506;2024-01-06T18:01:12;11.00;;;9.67;;